This is the latest recevied weather packets stored in our database for station/object KO6MEX-13. If no packets are shown the sender has not sent any weather packets the latest 1 day(s).
| Time | Temp. | Humidity | Pressure | Rain* | Wind** | Luminosity | Snow |
|---|---|---|---|---|---|---|---|
| 1778010980 | 17.22° C | 60% | 1019.3 hPa | 0 mm | 4.02 m/s, 212° | 481 W/m² | - |
| 1778010677 | 17.22° C | 61% | 1019.6 hPa | 0 mm | 2.24 m/s, 229° | 399 W/m² | - |
| 1778010374 | 17.78° C | 59% | 1019.6 hPa | 0 mm | 2.24 m/s, 274° | 477 W/m² | - |
| 1778010069 | 17.78° C | 59% | 1019.1 hPa | 0 mm | 2.24 m/s, 219° | 373 W/m² | - |
| 1778009767 | 17.22° C | 61% | 1019.2 hPa | 0 mm | 2.68 m/s, 192° | 411 W/m² | - |
| 1778009464 | 17.78° C | 60% | 1019.3 hPa | 0 mm | 4.02 m/s, 220° | 379 W/m² | - |
| 1778009163 | 17.78° C | 61% | 1019.4 hPa | 0 mm | 2.68 m/s, 205° | 389 W/m² | - |
| 1778008859 | 17.78° C | 61% | 1019.3 hPa | 0 mm | 2.68 m/s, 209° | 389 W/m² | - |
| 1778008558 | 17.78° C | 61% | 1019.5 hPa | 0 mm | 3.13 m/s, 155° | 523 W/m² | - |
| 1778008255 | 18.89° C | 59% | 1019.5 hPa | 0 mm | 2.68 m/s, 223° | 531 W/m² | - |
| 1778007950 | 18.33° C | 59% | 1019.5 hPa | 0 mm | 2.24 m/s, 201° | 862 W/m² | - |
| 1778007646 | 17.78° C | 60% | 1019.5 hPa | 0 mm | 4.47 m/s, 238° | 865 W/m² | - |
| 1778007343 | 17.78° C | 62% | 1019.3 hPa | 0 mm | 3.13 m/s, 206° | 828 W/m² | - |
| 1778007039 | 17.78° C | 62% | 1019.2 hPa | 0 mm | 3.13 m/s, 199° | 815 W/m² | - |
| 1778006736 | 17.22° C | 64% | 1019.4 hPa | 0 mm | 4.02 m/s, 172° | 807 W/m² | - |
| 1778006433 | 17.22° C | 64% | 1019.5 hPa | 0 mm | 3.13 m/s, 172° | 797 W/m² | - |
| 1778006130 | 17.22° C | 63% | 1019.4 hPa | 0 mm | 2.24 m/s, 254° | 811 W/m² | - |
| 1778005827 | 17.22° C | 62% | 1019.5 hPa | 0 mm | 3.13 m/s, 226° | 842 W/m² | - |
| 1778005523 | 17.22° C | 64% | 1019.4 hPa | 0 mm | 2.24 m/s, 143° | 876 W/m² | - |
| 1778005220 | 17.22° C | 62% | 1019.4 hPa | 0 mm | 1.34 m/s, 232° | 901 W/m² | - |
| 1778004917 | 17.22° C | 65% | 1019.4 hPa | 0 mm | 2.68 m/s, 210° | 897 W/m² | - |
| 1778004615 | 17.22° C | 63% | 1019.3 hPa | 0 mm | 2.24 m/s, 186° | 860 W/m² | - |
| 1778004310 | 16.67° C | 64% | 1019.4 hPa | 0 mm | 1.34 m/s, 229° | 906 W/m² | - |
| 1778004008 | 17.78° C | 62% | 1019.4 hPa | 0 mm | 1.79 m/s, 221° | 638 W/m² | - |
| 1778003703 | 16.67° C | 65% | 1019.4 hPa | 0 mm | 1.79 m/s, 259° | 757 W/m² | - |
* Rain latest hour (hover to see other rain measurements)
** Current wind speed in m/s (hover to see current wind gust speed)